»·PEaware :: N6515D KPUC-KSLC

N6515D :: KPUC-KSLC

FLIGHT INFORMATION

Flight Status: Arrived
Operator: Privately registered:
United States
More flights under this callsign
Pilot: Charles S. (11412)
Aircraft: Unknown
(DA62)
More flights by this aircraft type
Origin: KPUC Carbon Co
United States
Destination: KSLC Salt Lake City Intl
United States
More flights between these airports :: More routes between these airports
Route: +PUC V134 FFU
File this flight plan on PilotEdge
Remarks:
Altitude:
(Current/Filed)
14,000ft
Speed:
(Current/Filed)
150kts
Departed: 27-Jun-18 02:04 PM
Arrived: 27-Jun-18 02:43 PM
Distance/Time
Traveled:
89nm/0:39
Distance/Time
To Go:
Arrived

Flight Plot

Page will automatically refresh every two minutes.

Flight plan parsing failed; only flown route is shown


Map Options




Map Legend


Flown Route
Filed Route
Departure Airport
Arrival Airport
Navaid (VOR, NDB)
Fix

Horizontal Profiles

Position Reports

Time Latitude Longitude Heading Altitude Ground
Speed
27-Jun-18 13:47 39.611567 -110.750611 288 5859ft 0kts
27-Jun-18 13:48 39.611567 -110.750611 288 5859ft 0kts
27-Jun-18 13:49 39.611567 -110.750611 288 5859ft 0kts
27-Jun-18 13:50 39.611567 -110.750611 288 5859ft 0kts
27-Jun-18 13:51 39.611568 -110.750611 288 5859ft 0kts
27-Jun-18 13:52 39.611567 -110.750611 288 5859ft 0kts
27-Jun-18 13:53 39.611567 -110.750611 288 5859ft 0kts
27-Jun-18 13:54 39.611567 -110.750611 288 5859ft 0kts
27-Jun-18 13:55 39.611567 -110.750611 288 5859ft 0kts
27-Jun-18 13:56 39.611847 -110.750792 9 5862ft 3kts
27-Jun-18 13:57 39.614004 -110.749857 18 5873ft 3kts
27-Jun-18 13:58 39.615690 -110.749145 16 5882ft 10kts
27-Jun-18 13:59 39.621421 -110.746653 22 5918ft 8kts
27-Jun-18 14:00 39.625594 -110.744859 9 5947ft 0kts
27-Jun-18 14:01 39.626278 -110.745010 286 5947ft 0kts
27-Jun-18 14:02 39.626278 -110.745010 286 5947ft 0kts
27-Jun-18 14:03 39.626278 -110.745010 286 5947ft 0kts
27-Jun-18 14:04 39.623676 -110.747186 198 5925ft 65kts
27-Jun-18 14:05 39.600733 -110.757177 200 6416ft 108kts
27-Jun-18 14:06 39.571158 -110.755321 122 7206ft 135kts
27-Jun-18 14:07 39.595417 -110.734420 304 8017ft 141kts
27-Jun-18 14:08 39.616709 -110.775643 298 8883ft 138kts
27-Jun-18 14:09 39.639318 -110.816201 299 9742ft 139kts
27-Jun-18 14:10 39.662237 -110.856332 299 10588ft 139kts
27-Jun-18 14:11 39.685286 -110.896517 300 11425ft 140kts
27-Jun-18 14:12 39.708682 -110.937321 300 12207ft 144kts
27-Jun-18 14:13 39.732945 -110.979692 301 12916ft 149kts
27-Jun-18 14:14 39.757830 -111.023155 300 13621ft 151kts
27-Jun-18 14:15 39.783631 -111.068431 301 14034ft 169kts
27-Jun-18 14:16 39.813369 -111.120556 301 14030ft 186kts
27-Jun-18 14:17 39.844563 -111.175303 301 14014ft 190kts
27-Jun-18 14:18 39.875877 -111.230381 301 13996ft 191kts
27-Jun-18 14:19 39.907677 -111.286425 301 13979ft 192kts
27-Jun-18 14:20 39.939235 -111.342143 301 13962ft 192kts
27-Jun-18 14:21 39.970792 -111.397966 301 13955ft 191kts
27-Jun-18 14:22 40.002239 -111.453728 301 13954ft 191kts
27-Jun-18 14:23 40.028469 -111.500271 301 13954ft 191kts
27-Jun-18 14:24 40.059677 -111.555706 301 13954ft 191kts
27-Jun-18 14:25 40.090691 -111.610885 301 14054ft 188kts
27-Jun-18 14:26 40.121283 -111.665454 300 14054ft 190kts
27-Jun-18 14:27 40.152221 -111.720703 301 14053ft 190kts
27-Jun-18 14:28 40.188205 -111.785104 300 13189ft 186kts
27-Jun-18 14:29 40.213454 -111.830407 301 12433ft 187kts
27-Jun-18 14:30 40.243986 -111.885274 301 12055ft 187kts
27-Jun-18 14:31 40.274792 -111.936682 328 12032ft 196kts
27-Jun-18 14:32 40.329607 -111.944547 353 12054ft 200kts
27-Jun-18 14:33 40.386867 -111.946791 0 11511ft 221kts
27-Jun-18 14:34 40.446366 -111.941973 0 10481ft 190kts
27-Jun-18 14:35 40.493894 -111.936950 0 9453ft 164kts
27-Jun-18 14:36 40.538443 -111.931876 0 8452ft 159kts
27-Jun-18 14:37 40.581191 -111.931089 350 7509ft 152kts
27-Jun-18 14:38 40.623254 -111.935909 351 6635ft 157kts
27-Jun-18 14:39 40.666799 -111.946836 344 5995ft 153kts
27-Jun-18 14:40 40.702426 -111.954947 342 5632ft 124kts
27-Jun-18 14:41 40.735719 -111.960721 347 5031ft 110kts
27-Jun-18 14:42 40.764115 -111.961931 352 4475ft 104kts
27-Jun-18 14:43 40.786028 -111.962117 5 4220ft 29kts
27-Jun-18 14:44 40.783383 -111.960029 179 4220ft 20kts
27-Jun-18 14:45 40.778884 -111.959000 83 4223ft 0kts

Navigation Log

Ident Type
Flight plan parsing failed, navigation log unavailable